sensor_id;sensor_type;location;lat;lon;timestamp;pressure;altitude;pressure_sealevel;temperature;humidity
51460;BME280;37534;39.772;2.718;2023-04-03T00:01:23;101505.81;;;13.13;100.00
51460;BME280;37534;39.772;2.718;2023-04-03T00:03:49;101486.31;;;12.99;100.00
51460;BME280;37534;39.772;2.718;2023-04-03T00:06:17;101491.38;;;13.03;100.00
51460;BME280;37534;39.772;2.718;2023-04-03T00:08:43;101483.66;;;13.00;100.00
51460;BME280;37534;39.772;2.718;2023-04-03T00:11:09;101472.06;;;13.17;100.00
51460;BME280;37534;39.772;2.718;2023-04-03T00:13:35;101462.25;;;12.93;100.00
51460;BME280;37534;39.772;2.718;2023-04-03T00:16:01;101464.34;;;12.78;100.00
51460;BME280;37534;39.772;2.718;2023-04-03T00:18:28;101475.47;;;12.83;100.00
51460;BME280;37534;39.772;2.718;2023-04-03T00:20:54;101467.44;;;12.93;100.00
51460;BME280;37534;39.772;2.718;2023-04-03T00:23:20;101463.59;;;12.72;100.00
51460;BME280;37534;39.772;2.718;2023-04-03T00:25:46;101475.81;;;12.67;100.00
51460;BME280;37534;39.772;2.718;2023-04-03T00:28:12;101467.81;;;12.38;100.00
51460;BME280;37534;39.772;2.718;2023-04-03T00:30:37;101473.97;;;12.32;100.00
51460;BME280;37534;39.772;2.718;2023-04-03T00:33:03;101477.31;;;12.37;100.00
51460;BME280;37534;39.772;2.718;2023-04-03T00:35:28;101467.25;;;12.23;100.00
51460;BME280;37534;39.772;2.718;2023-04-03T00:37:55;101470.53;;;12.33;100.00
51460;BME280;37534;39.772;2.718;2023-04-03T00:40:23;101470.47;;;12.34;100.00
51460;BME280;37534;39.772;2.718;2023-04-03T00:42:55;101471.31;;;12.36;100.00
51460;BME280;37534;39.772;2.718;2023-04-03T00:45:37;101455.69;;;12.40;100.00
51460;BME280;37534;39.772;2.718;2023-04-03T00:48:05;101455.84;;;12.33;100.00
51460;BME280;37534;39.772;2.718;2023-04-03T00:50:35;101460.59;;;12.11;100.00
51460;BME280;37534;39.772;2.718;2023-04-03T00:53:03;101459.31;;;11.90;100.00
51460;BME280;37534;39.772;2.718;2023-04-03T00:55:30;101453.13;;;11.97;100.00
51460;BME280;37534;39.772;2.718;2023-04-03T00:57:57;101447.06;;;11.98;100.00
51460;BME280;37534;39.772;2.718;2023-04-03T01:00:23;101444.69;;;11.86;100.00
51460;BME280;37534;39.772;2.718;2023-04-03T01:02:51;101444.88;;;11.77;100.00
51460;BME280;37534;39.772;2.718;2023-04-03T01:05:17;101434.66;;;11.71;100.00
51460;BME280;37534;39.772;2.718;2023-04-03T01:07:43;101431.97;;;11.75;100.00
51460;BME280;37534;39.772;2.718;2023-04-03T01:10:12;101430.53;;;11.60;100.00
51460;BME280;37534;39.772;2.718;2023-04-03T01:12:41;101426.97;;;11.68;100.00
51460;BME280;37534;39.772;2.718;2023-04-03T01:15:11;101430.66;;;11.53;100.00
51460;BME280;37534;39.772;2.718;2023-04-03T01:17:40;101429.81;;;11.52;100.00
51460;BME280;37534;39.772;2.718;2023-04-03T01:25:47;101423.06;;;11.45;100.00
51460;BME280;37534;39.772;2.718;2023-04-03T01:28:17;101424.81;;;11.45;100.00
51460;BME280;37534;39.772;2.718;2023-04-03T01:33:31;101417.28;;;11.31;100.00
51460;BME280;37534;39.772;2.718;2023-04-03T01:35:57;101409.66;;;11.25;100.00
51460;BME280;37534;39.772;2.718;2023-04-03T01:38:22;101409.59;;;11.28;100.00
51460;BME280;37534;39.772;2.718;2023-04-03T01:40:48;101411.31;;;11.29;100.00
51460;BME280;37534;39.772;2.718;2023-04-03T01:43:14;101407.16;;;11.20;100.00
51460;BME280;37534;39.772;2.718;2023-04-03T01:45:39;101411.41;;;11.22;100.00
51460;BME280;37534;39.772;2.718;2023-04-03T01:48:05;101411.25;;;11.32;100.00
51460;BME280;37534;39.772;2.718;2023-04-03T01:50:31;101392.56;;;11.17;100.00
51460;BME280;37534;39.772;2.718;2023-04-03T01:52:57;101410.53;;;11.23;100.00
51460;BME280;37534;39.772;2.718;2023-04-03T01:55:22;101406.78;;;11.40;100.00
51460;BME280;37534;39.772;2.718;2023-04-03T01:57:48;101394.16;;;11.25;100.00
51460;BME280;37534;39.772;2.718;2023-04-03T02:00:14;101402.44;;;11.42;100.00
51460;BME280;37534;39.772;2.718;2023-04-03T02:02:39;101389.03;;;11.23;100.00
51460;BME280;37534;39.772;2.718;2023-04-03T02:05:05;101391.94;;;11.51;100.00
51460;BME280;37534;39.772;2.718;2023-04-03T02:07:31;101390.19;;;11.53;100.00
51460;BME280;37534;39.772;2.718;2023-04-03T02:09:57;101380.50;;;11.63;100.00
51460;BME280;37534;39.772;2.718;2023-04-03T02:12:22;101374.69;;;11.53;100.00
51460;BME280;37534;39.772;2.718;2023-04-03T02:14:48;101378.75;;;11.65;100.00
51460;BME280;37534;39.772;2.718;2023-04-03T02:17:13;101359.34;;;11.86;100.00
51460;BME280;37534;39.772;2.718;2023-04-03T02:19:39;101360.88;;;11.98;100.00
51460;BME280;37534;39.772;2.718;2023-04-03T02:22:05;101371.56;;;12.22;100.00
51460;BME280;37534;39.772;2.718;2023-04-03T02:24:31;101367.88;;;12.33;100.00
51460;BME280;37534;39.772;2.718;2023-04-03T02:26:57;101374.94;;;12.25;100.00
51460;BME280;37534;39.772;2.718;2023-04-03T02:29:23;101372.91;;;12.38;100.00
51460;BME280;37534;39.772;2.718;2023-04-03T02:31:49;101387.09;;;12.59;100.00
51460;BME280;37534;39.772;2.718;2023-04-03T02:34:15;101374.59;;;12.77;100.00
51460;BME280;37534;39.772;2.718;2023-04-03T02:36:41;101361.41;;;12.86;100.00
51460;BME280;37534;39.772;2.718;2023-04-03T02:39:07;101369.84;;;12.94;100.00
51460;BME280;37534;39.772;2.718;2023-04-03T02:41:33;101362.69;;;13.04;100.00
51460;BME280;37534;39.772;2.718;2023-04-03T02:44:02;101357.47;;;13.05;100.00
51460;BME280;37534;39.772;2.718;2023-04-03T02:46:28;101356.88;;;12.96;100.00
51460;BME280;37534;39.772;2.718;2023-04-03T02:48:54;101358.19;;;12.78;100.00
51460;BME280;37534;39.772;2.718;2023-04-03T02:51:19;101352.53;;;12.62;100.00
51460;BME280;37534;39.772;2.718;2023-04-03T02:53:45;101356.16;;;12.54;100.00
51460;BME280;37534;39.772;2.718;2023-04-03T02:56:11;101340.97;;;12.39;100.00
51460;BME280;37534;39.772;2.718;2023-04-03T02:58:36;101340.50;;;12.23;100.00
51460;BME280;37534;39.772;2.718;2023-04-03T03:01:02;101339.94;;;12.09;100.00
51460;BME280;37534;39.772;2.718;2023-04-03T03:03:28;101346.72;;;12.14;100.00
51460;BME280;37534;39.772;2.718;2023-04-03T03:06:09;101345.81;;;12.17;100.00
51460;BME280;37534;39.772;2.718;2023-04-03T03:08:36;101347.66;;;12.12;100.00
51460;BME280;37534;39.772;2.718;2023-04-03T03:11:03;101347.44;;;12.21;100.00
51460;BME280;37534;39.772;2.718;2023-04-03T03:13:29;101345.53;;;12.29;100.00
51460;BME280;37534;39.772;2.718;2023-04-03T03:15:55;101354.94;;;12.32;100.00
51460;BME280;37534;39.772;2.718;2023-04-03T03:18:21;101340.28;;;12.32;100.00
51460;BME280;37534;39.772;2.718;2023-04-03T03:20:51;101348.19;;;12.26;100.00
51460;BME280;37534;39.772;2.718;2023-04-03T03:23:17;101333.50;;;12.27;100.00
51460;BME280;37534;39.772;2.718;2023-04-03T03:25:42;101329.72;;;12.03;100.00
51460;BME280;37534;39.772;2.718;2023-04-03T03:28:08;101328.03;;;12.02;100.00
51460;BME280;37534;39.772;2.718;2023-04-03T03:30:34;101326.53;;;11.91;100.00
51460;BME280;37534;39.772;2.718;2023-04-03T03:33:00;101328.72;;;11.68;100.00
51460;BME280;37534;39.772;2.718;2023-04-03T03:35:26;101318.13;;;11.38;100.00
51460;BME280;37534;39.772;2.718;2023-04-03T03:37:51;101337.16;;;11.34;100.00
51460;BME280;37534;39.772;2.718;2023-04-03T03:40:17;101337.38;;;11.21;100.00
51460;BME280;37534;39.772;2.718;2023-04-03T03:42:42;101351.16;;;11.20;100.00
51460;BME280;37534;39.772;2.718;2023-04-03T03:45:08;101346.19;;;11.11;100.00
51460;BME280;37534;39.772;2.718;2023-04-03T03:47:34;101349.47;;;11.19;100.00
51460;BME280;37534;39.772;2.718;2023-04-03T03:50:01;101339.59;;;11.41;100.00
51460;BME280;37534;39.772;2.718;2023-04-03T03:52:26;101338.69;;;11.44;100.00
51460;BME280;37534;39.772;2.718;2023-04-03T03:54:52;101343.09;;;11.39;100.00
51460;BME280;37534;39.772;2.718;2023-04-03T03:57:17;101330.63;;;11.14;100.00
51460;BME280;37534;39.772;2.718;2023-04-03T03:59:43;101339.22;;;11.15;100.00
51460;BME280;37534;39.772;2.718;2023-04-03T04:02:10;101342.94;;;11.00;100.00
51460;BME280;37534;39.772;2.718;2023-04-03T04:04:36;101339.28;;;11.10;100.00
51460;BME280;37534;39.772;2.718;2023-04-03T04:07:02;101339.53;;;10.98;100.00
51460;BME280;37534;39.772;2.718;2023-04-03T04:09:28;101339.66;;;10.90;100.00
51460;BME280;37534;39.772;2.718;2023-04-03T04:11:53;101335.34;;;10.91;100.00
51460;BME280;37534;39.772;2.718;2023-04-03T04:14:19;101338.00;;;10.86;100.00
51460;BME280;37534;39.772;2.718;2023-04-03T04:16:48;101343.44;;;10.69;100.00
51460;BME280;37534;39.772;2.718;2023-04-03T04:19:14;101339.34;;;10.59;100.00
51460;BME280;37534;39.772;2.718;2023-04-03T04:21:40;101323.31;;;10.38;100.00
51460;BME280;37534;39.772;2.718;2023-04-03T04:24:07;101327.66;;;10.35;100.00
51460;BME280;37534;39.772;2.718;2023-04-03T04:26:33;101323.34;;;10.35;100.00
51460;BME280;37534;39.772;2.718;2023-04-03T04:29:00;101329.91;;;10.55;100.00
51460;BME280;37534;39.772;2.718;2023-04-03T04:31:26;101339.41;;;10.54;100.00
51460;BME280;37534;39.772;2.718;2023-04-03T04:33:52;101333.44;;;10.51;100.00
51460;BME280;37534;39.772;2.718;2023-04-03T04:36:18;101324.16;;;10.37;100.00
51460;BME280;37534;39.772;2.718;2023-04-03T04:38:43;101320.94;;;10.21;100.00
51460;BME280;37534;39.772;2.718;2023-04-03T04:41:09;101325.34;;;10.15;100.00
51460;BME280;37534;39.772;2.718;2023-04-03T04:43:35;101326.00;;;10.27;100.00
51460;BME280;37534;39.772;2.718;2023-04-03T04:48:30;101323.63;;;10.15;100.00
51460;BME280;37534;39.772;2.718;2023-04-03T04:50:56;101318.66;;;10.01;100.00
51460;BME280;37534;39.772;2.718;2023-04-03T04:53:22;101319.44;;;10.06;100.00
51460;BME280;37534;39.772;2.718;2023-04-03T04:55:47;101322.66;;;10.21;100.00
51460;BME280;37534;39.772;2.718;2023-04-03T04:58:13;101315.81;;;10.20;100.00
51460;BME280;37534;39.772;2.718;2023-04-03T05:00:39;101326.97;;;10.22;100.00
51460;BME280;37534;39.772;2.718;2023-04-03T05:03:05;101335.75;;;10.05;100.00
51460;BME280;37534;39.772;2.718;2023-04-03T05:05:30;101324.59;;;10.06;100.00
51460;BME280;37534;39.772;2.718;2023-04-03T05:07:56;101312.66;;;9.99;100.00
51460;BME280;37534;39.772;2.718;2023-04-03T05:10:22;101329.88;;;9.99;100.00
51460;BME280;37534;39.772;2.718;2023-04-03T05:12:48;101322.06;;;10.03;100.00
51460;BME280;37534;39.772;2.718;2023-04-03T05:15:13;101325.66;;;9.92;100.00
51460;BME280;37534;39.772;2.718;2023-04-03T05:17:39;101324.06;;;9.83;100.00
51460;BME280;37534;39.772;2.718;2023-04-03T05:20:05;101312.78;;;9.92;100.00
51460;BME280;37534;39.772;2.718;2023-04-03T05:22:31;101330.00;;;9.88;100.00
51460;BME280;37534;39.772;2.718;2023-04-03T05:24:57;101336.06;;;9.84;100.00
51460;BME280;37534;39.772;2.718;2023-04-03T05:27:22;101339.56;;;9.78;100.00
51460;BME280;37534;39.772;2.718;2023-04-03T05:29:54;101354.97;;;9.86;100.00
51460;BME280;37534;39.772;2.718;2023-04-03T05:32:19;101353.16;;;9.91;100.00
51460;BME280;37534;39.772;2.718;2023-04-03T05:34:45;101358.25;;;9.97;100.00
51460;BME280;37534;39.772;2.718;2023-04-03T05:37:11;101363.19;;;10.13;100.00
51460;BME280;37534;39.772;2.718;2023-04-03T05:39:37;101376.81;;;10.21;100.00
51460;BME280;37534;39.772;2.718;2023-04-03T05:42:05;101371.03;;;10.05;100.00
51460;BME280;37534;39.772;2.718;2023-04-03T05:44:31;101376.09;;;10.13;100.00
51460;BME280;37534;39.772;2.718;2023-04-03T05:46:56;101376.19;;;10.03;100.00
51460;BME280;37534;39.772;2.718;2023-04-03T05:49:22;101371.19;;;9.93;100.00
51460;BME280;37534;39.772;2.718;2023-04-03T05:51:47;101372.09;;;9.87;100.00
51460;BME280;37534;39.772;2.718;2023-04-03T05:54:23;101390.81;;;10.01;100.00
51460;BME280;37534;39.772;2.718;2023-04-03T05:56:50;101384.72;;;10.08;100.00
51460;BME280;37534;39.772;2.718;2023-04-03T05:59:17;101389.03;;;10.09;100.00
51460;BME280;37534;39.772;2.718;2023-04-03T06:01:42;101380.31;;;10.17;100.00
51460;BME280;37534;39.772;2.718;2023-04-03T06:04:08;101390.47;;;10.31;100.00
51460;BME280;37534;39.772;2.718;2023-04-03T06:06:47;101397.97;;;10.48;100.00
51460;BME280;37534;39.772;2.718;2023-04-03T06:09:15;101401.19;;;10.63;100.00
51460;BME280;37534;39.772;2.718;2023-04-03T06:11:40;101398.47;;;10.71;100.00
51460;BME280;37534;39.772;2.718;2023-04-03T06:14:07;101406.97;;;10.79;100.00
51460;BME280;37534;39.772;2.718;2023-04-03T06:16:33;101402.47;;;10.91;100.00
51460;BME280;37534;39.772;2.718;2023-04-03T06:18:59;101397.38;;;10.88;100.00
51460;BME280;37534;39.772;2.718;2023-04-03T06:21:25;101396.47;;;10.89;100.00
51460;BME280;37534;39.772;2.718;2023-04-03T06:23:50;101404.97;;;10.97;100.00
51460;BME280;37534;39.772;2.718;2023-04-03T06:26:16;101402.53;;;10.88;100.00
51460;BME280;37534;39.772;2.718;2023-04-03T06:28:42;101403.50;;;10.80;100.00
51460;BME280;37534;39.772;2.718;2023-04-03T06:31:08;101408.72;;;10.77;100.00
51460;BME280;37534;39.772;2.718;2023-04-03T06:33:34;101414.69;;;10.79;100.00
51460;BME280;37534;39.772;2.718;2023-04-03T06:36:03;101415.59;;;10.78;100.00
51460;BME280;37534;39.772;2.718;2023-04-03T06:38:30;101413.84;;;10.80;100.00
51460;BME280;37534;39.772;2.718;2023-04-03T06:40:56;101420.53;;;10.91;100.00
51460;BME280;37534;39.772;2.718;2023-04-03T06:43:22;101417.03;;;10.95;100.00
51460;BME280;37534;39.772;2.718;2023-04-03T06:45:47;101417.81;;;11.00;100.00
51460;BME280;37534;39.772;2.718;2023-04-03T06:48:13;101421.06;;;11.13;100.00
51460;BME280;37534;39.772;2.718;2023-04-03T06:50:39;101432.13;;;11.19;100.00
51460;BME280;37534;39.772;2.718;2023-04-03T06:53:05;101427.81;;;11.20;100.00
51460;BME280;37534;39.772;2.718;2023-04-03T06:55:31;101435.50;;;11.25;100.00
51460;BME280;37534;39.772;2.718;2023-04-03T06:57:57;101438.69;;;11.39;100.00
51460;BME280;37534;39.772;2.718;2023-04-03T07:00:22;101416.38;;;11.80;100.00
51460;BME280;37534;39.772;2.718;2023-04-03T07:02:48;101405.88;;;12.31;100.00
51460;BME280;37534;39.772;2.718;2023-04-03T07:05:13;101409.22;;;13.08;100.00
51460;BME280;37534;39.772;2.718;2023-04-03T07:07:39;101432.69;;;14.01;100.00
51460;BME280;37534;39.772;2.718;2023-04-03T07:10:07;101431.28;;;15.04;100.00
51460;BME280;37534;39.772;2.718;2023-04-03T07:12:33;101427.28;;;16.18;99.12
51460;BME280;37534;39.772;2.718;2023-04-03T07:14:59;101424.03;;;17.01;86.47
51460;BME280;37534;39.772;2.718;2023-04-03T07:17:24;101433.09;;;17.93;83.02
51460;BME280;37534;39.772;2.718;2023-04-03T07:19:51;101431.31;;;19.05;77.29
51460;BME280;37534;39.772;2.718;2023-04-03T07:22:17;101428.25;;;20.14;69.50
51460;BME280;37534;39.772;2.718;2023-04-03T07:24:43;101427.13;;;20.96;64.20
51460;BME280;37534;39.772;2.718;2023-04-03T07:27:09;101433.16;;;21.72;56.88
51460;BME280;37534;39.772;2.718;2023-04-03T07:29:35;101430.69;;;22.53;53.45
51460;BME280;37534;39.772;2.718;2023-04-03T07:32:01;101428.22;;;23.30;49.96
51460;BME280;37534;39.772;2.718;2023-04-03T07:34:27;101440.16;;;22.96;49.65
51460;BME280;37534;39.772;2.718;2023-04-03T07:36:53;101431.94;;;24.03;46.16
51460;BME280;37534;39.772;2.718;2023-04-03T07:39:19;101428.34;;;22.89;48.61
51460;BME280;37534;39.772;2.718;2023-04-03T07:41:44;101422.63;;;24.23;46.07
51460;BME280;37534;39.772;2.718;2023-04-03T07:44:10;101425.47;;;25.04;43.35
51460;BME280;37534;39.772;2.718;2023-04-03T07:46:37;101427.16;;;25.16;42.84
51460;BME280;37534;39.772;2.718;2023-04-03T07:49:03;101419.78;;;25.67;42.32
51460;BME280;37534;39.772;2.718;2023-04-03T07:51:29;101416.19;;;25.45;41.54
51460;BME280;37534;39.772;2.718;2023-04-03T07:53:56;101419.56;;;26.36;39.62
51460;BME280;37534;39.772;2.718;2023-04-03T07:56:21;101418.38;;;26.93;38.44
51460;BME280;37534;39.772;2.718;2023-04-03T07:58:48;101414.78;;;26.62;36.86
51460;BME280;37534;39.772;2.718;2023-04-03T08:01:13;101416.22;;;27.29;36.40
51460;BME280;37534;39.772;2.718;2023-04-03T08:03:39;101419.44;;;27.12;36.24
51460;BME280;37534;39.772;2.718;2023-04-03T08:06:06;101418.13;;;27.48;35.35
51460;BME280;37534;39.772;2.718;2023-04-03T08:08:33;101414.09;;;27.54;35.51
51460;BME280;37534;39.772;2.718;2023-04-03T08:11:00;101414.16;;;28.14;34.34
51460;BME280;37534;39.772;2.718;2023-04-03T08:13:28;101417.38;;;28.28;33.11
51460;BME280;37534;39.772;2.718;2023-04-03T08:15:54;101417.66;;;28.83;32.73
51460;BME280;37534;39.772;2.718;2023-04-03T08:18:23;101410.94;;;28.79;32.67
51460;BME280;37534;39.772;2.718;2023-04-03T08:20:50;101403.53;;;28.92;33.05
51460;BME280;37534;39.772;2.718;2023-04-03T08:23:17;101402.03;;;29.27;32.23
51460;BME280;37534;39.772;2.718;2023-04-03T08:25:43;101409.53;;;28.45;32.61
51460;BME280;37534;39.772;2.718;2023-04-03T08:28:09;101411.72;;;27.92;33.51
51460;BME280;37534;39.772;2.718;2023-04-03T08:30:38;101409.41;;;28.18;33.72
51460;BME280;37534;39.772;2.718;2023-04-03T08:33:03;101411.66;;;28.71;33.62
51460;BME280;37534;39.772;2.718;2023-04-03T08:35:30;101414.72;;;28.67;32.63
51460;BME280;37534;39.772;2.718;2023-04-03T08:37:55;101412.31;;;29.77;31.21
51460;BME280;37534;39.772;2.718;2023-04-03T08:40:22;101417.19;;;28.97;31.24
51460;BME280;37534;39.772;2.718;2023-04-03T08:48:12;101409.97;;;26.67;34.73
51460;BME280;37534;39.772;2.718;2023-04-03T08:50:43;101408.63;;;25.74;36.14
51460;BME280;37534;39.772;2.718;2023-04-03T08:53:19;101397.84;;;24.85;37.53
51460;BME280;37534;39.772;2.718;2023-04-03T08:55:49;101405.84;;;23.75;39.32
51460;BME280;37534;39.772;2.718;2023-04-03T08:58:23;101411.75;;;22.88;41.60
51460;BME280;37534;39.772;2.718;2023-04-03T09:00:54;101408.84;;;21.97;43.26
51460;BME280;37534;39.772;2.718;2023-04-03T09:03:21;101412.34;;;21.54;44.96
51460;BME280;37534;39.772;2.718;2023-04-03T09:05:54;101401.25;;;21.92;46.98
51460;BME280;37534;39.772;2.718;2023-04-03T09:11:26;101417.63;;;25.38;39.37
51460;BME280;37534;39.772;2.718;2023-04-03T09:13:54;101419.00;;;27.28;35.72
51460;BME280;37534;39.772;2.718;2023-04-03T09:21:48;101412.78;;;29.63;30.99
51460;BME280;37534;39.772;2.718;2023-04-03T09:24:15;101406.88;;;28.94;31.67
51460;BME280;37534;39.772;2.718;2023-04-03T09:26:58;101390.19;;;27.85;32.77
51460;BME280;37534;39.772;2.718;2023-04-03T09:29:27;101402.59;;;26.92;34.09
51460;BME280;37534;39.772;2.718;2023-04-03T09:31:57;101400.81;;;27.44;33.93
51460;BME280;37534;39.772;2.718;2023-04-03T09:34:38;101400.69;;;29.04;34.41
51460;BME280;37534;39.772;2.718;2023-04-03T09:37:06;101396.06;;;29.81;33.06
51460;BME280;37534;39.772;2.718;2023-04-03T09:39:49;101396.63;;;30.74;32.03
51460;BME280;37534;39.772;2.718;2023-04-03T09:42:20;101395.47;;;30.50;31.36
51460;BME280;37534;39.772;2.718;2023-04-03T09:44:54;101403.56;;;29.67;32.93
51460;BME280;37534;39.772;2.718;2023-04-03T09:47:35;101396.47;;;30.22;32.59
51460;BME280;37534;39.772;2.718;2023-04-03T09:52:46;101403.69;;;31.44;30.93
51460;BME280;37534;39.772;2.718;2023-04-03T09:55:23;101395.88;;;31.93;30.07
51460;BME280;37534;39.772;2.718;2023-04-03T09:57:57;101395.59;;;32.05;30.21
51460;BME280;37534;39.772;2.718;2023-04-03T10:00:27;101403.16;;;32.67;29.25
51460;BME280;37534;39.772;2.718;2023-04-03T10:02:57;101399.44;;;32.84;28.85
51460;BME280;37534;39.772;2.718;2023-04-03T10:05:34;101398.22;;;33.20;28.14
51460;BME280;37534;39.772;2.718;2023-04-03T10:10:47;101398.47;;;34.04;27.76
51460;BME280;37534;39.772;2.718;2023-04-03T10:13:16;101401.16;;;34.50;26.92
51460;BME280;37534;39.772;2.718;2023-04-03T10:18:53;101392.09;;;34.51;26.62
51460;BME280;37534;39.772;2.718;2023-04-03T10:26:57;101375.53;;;34.71;25.81
51460;BME280;37534;39.772;2.718;2023-04-03T10:34:46;101377.03;;;35.18;25.47
51460;BME280;37534;39.772;2.718;2023-04-03T10:42:33;101365.09;;;34.15;26.93
51460;BME280;37534;39.772;2.718;2023-04-03T10:48:17;101358.72;;;33.61;27.26
51460;BME280;37534;39.772;2.718;2023-04-03T10:59:30;101340.69;;;33.32;27.30
51460;BME280;37534;39.772;2.718;2023-04-03T11:02:27;101340.34;;;33.89;26.60
51460;BME280;37534;39.772;2.718;2023-04-03T11:05:06;101333.69;;;34.08;26.29
51460;BME280;37534;39.772;2.718;2023-04-03T11:07:39;101329.81;;;34.34;26.14
51460;BME280;37534;39.772;2.718;2023-04-03T11:10:32;101332.41;;;34.42;26.33
51460;BME280;37534;39.772;2.718;2023-04-03T11:13:24;101321.75;;;34.19;26.09
51460;BME280;37534;39.772;2.718;2023-04-03T11:15:53;101315.31;;;33.82;26.95
51460;BME280;37534;39.772;2.718;2023-04-03T11:18:43;101329.50;;;33.60;26.53
51460;BME280;37534;39.772;2.718;2023-04-03T11:21:17;101322.72;;;33.18;27.11
51460;BME280;37534;39.772;2.718;2023-04-03T11:23:46;101310.88;;;32.95;27.94
51460;BME280;37534;39.772;2.718;2023-04-03T11:26:17;101319.31;;;33.24;27.08
51460;BME280;37534;39.772;2.718;2023-04-03T11:28:43;101317.13;;;33.27;27.34
51460;BME280;37534;39.772;2.718;2023-04-03T11:31:29;101316.03;;;32.33;29.08
51460;BME280;37534;39.772;2.718;2023-04-03T11:37:00;101299.44;;;32.78;28.53
51460;BME280;37534;39.772;2.718;2023-04-03T11:39:35;101303.09;;;32.77;28.43
51460;BME280;37534;39.772;2.718;2023-04-03T11:42:32;101309.03;;;31.48;30.17
51460;BME280;37534;39.772;2.718;2023-04-03T11:47:54;101297.78;;;32.53;28.94
51460;BME280;37534;39.772;2.718;2023-04-03T11:50:40;101302.19;;;32.21;28.89
51460;BME280;37534;39.772;2.718;2023-04-03T12:05:48;101286.31;;;30.59;31.38
51460;BME280;37534;39.772;2.718;2023-04-03T12:08:28;101276.22;;;31.39;30.73
51460;BME280;37534;39.772;2.718;2023-04-03T12:11:25;101288.44;;;31.50;29.68
51460;BME280;37534;39.772;2.718;2023-04-03T12:16:33;101269.06;;;30.19;31.05
51460;BME280;37534;39.772;2.718;2023-04-03T12:24:28;101242.28;;;29.02;32.30
51460;BME280;37534;39.772;2.718;2023-04-03T12:37:59;101219.91;;;29.05;29.10
51460;BME280;37534;39.772;2.718;2023-04-03T12:48:48;101205.63;;;29.06;28.14
51460;BME280;37534;39.772;2.718;2023-04-03T12:51:15;101219.66;;;28.14;29.46
51460;BME280;37534;39.772;2.718;2023-04-03T12:53:43;101212.66;;;27.44;31.09
51460;BME280;37534;39.772;2.718;2023-04-03T12:58:48;101208.75;;;27.29;30.91
51460;BME280;37534;39.772;2.718;2023-04-03T13:01:20;101208.38;;;27.82;30.22
51460;BME280;37534;39.772;2.718;2023-04-03T13:03:57;101207.81;;;27.59;30.54
51460;BME280;37534;39.772;2.718;2023-04-03T13:06:32;101201.88;;;26.76;31.53
51460;BME280;37534;39.772;2.718;2023-04-03T13:09:01;101201.00;;;27.06;31.73
51460;BME280;37534;39.772;2.718;2023-04-03T13:11:30;101198.44;;;27.84;30.13
51460;BME280;37534;39.772;2.718;2023-04-03T13:14:05;101200.78;;;29.65;29.01
51460;BME280;37534;39.772;2.718;2023-04-03T13:16:32;101185.91;;;31.36;26.57
51460;BME280;37534;39.772;2.718;2023-04-03T13:18:58;101185.91;;;32.74;25.32
51460;BME280;37534;39.772;2.718;2023-04-03T13:21:27;101204.66;;;34.13;23.20
51460;BME280;37534;39.772;2.718;2023-04-03T13:23:58;101182.13;;;33.23;22.81
51460;BME280;37534;39.772;2.718;2023-04-03T13:26:28;101165.72;;;33.03;23.40
51460;BME280;37534;39.772;2.718;2023-04-03T13:28:59;101177.72;;;32.12;23.57
51460;BME280;37534;39.772;2.718;2023-04-03T13:31:27;101170.06;;;31.43;25.28
51460;BME280;37534;39.772;2.718;2023-04-03T13:34:12;101176.84;;;30.09;25.69
51460;BME280;37534;39.772;2.718;2023-04-03T13:36:39;101176.41;;;27.74;27.47
51460;BME280;37534;39.772;2.718;2023-04-03T13:41:46;101156.78;;;24.28;31.38
51460;BME280;37534;39.772;2.718;2023-04-03T13:44:28;101161.38;;;24.38;31.43
51460;BME280;37534;39.772;2.718;2023-04-03T13:47:21;101158.47;;;24.41;33.06
51460;BME280;37534;39.772;2.718;2023-04-03T13:52:53;101161.50;;;26.84;30.27
51460;BME280;37534;39.772;2.718;2023-04-03T13:55:23;101156.00;;;25.93;31.98
51460;BME280;37534;39.772;2.718;2023-04-03T14:00:39;101147.25;;;24.61;35.08
51460;BME280;37534;39.772;2.718;2023-04-03T14:05:42;101149.16;;;23.30;38.95
51460;BME280;37534;39.772;2.718;2023-04-03T14:08:10;101141.34;;;22.42;40.53
51460;BME280;37534;39.772;2.718;2023-04-03T14:10:36;101151.81;;;21.63;42.40
51460;BME280;37534;39.772;2.718;2023-04-03T14:13:02;101147.88;;;21.02;44.27
51460;BME280;37534;39.772;2.718;2023-04-03T14:15:30;101147.03;;;20.44;45.58
51460;BME280;37534;39.772;2.718;2023-04-03T14:17:56;101150.59;;;20.43;46.37
51460;BME280;37534;39.772;2.718;2023-04-03T14:20:25;101143.88;;;20.67;46.76
51460;BME280;37534;39.772;2.718;2023-04-03T14:22:51;101138.38;;;21.14;45.00
51460;BME280;37534;39.772;2.718;2023-04-03T14:25:18;101142.94;;;20.83;45.96
51460;BME280;37534;39.772;2.718;2023-04-03T14:27:47;101154.59;;;20.64;47.17
51460;BME280;37534;39.772;2.718;2023-04-03T14:30:19;101146.16;;;21.42;45.44
51460;BME280;37534;39.772;2.718;2023-04-03T14:32:45;101147.13;;;22.60;42.43
51460;BME280;37534;39.772;2.718;2023-04-03T14:35:12;101140.63;;;22.90;41.13
51460;BME280;37534;39.772;2.718;2023-04-03T14:37:38;101140.78;;;23.61;39.14
51460;BME280;37534;39.772;2.718;2023-04-03T14:40:05;101140.81;;;23.96;38.06
51460;BME280;37534;39.772;2.718;2023-04-03T14:42:35;101168.06;;;23.84;38.62
51460;BME280;37534;39.772;2.718;2023-04-03T14:45:04;101148.78;;;23.24;39.59
51460;BME280;37534;39.772;2.718;2023-04-03T14:47:30;101133.47;;;23.29;39.69
51460;BME280;37534;39.772;2.718;2023-04-03T14:49:58;101152.63;;;23.55;39.37
51460;BME280;37534;39.772;2.718;2023-04-03T14:52:33;101140.56;;;23.40;39.49